sensor_id;sensor_type;location;lat;lon;timestamp;temperature;humidity
612;DHT22;293;53.888;11.464;2023-02-28T00:01:25;3.00;99.90
612;DHT22;293;53.888;11.464;2023-02-28T00:03:52;3.00;99.90
612;DHT22;293;53.888;11.464;2023-02-28T00:06:21;3.00;99.90
612;DHT22;293;53.888;11.464;2023-02-28T00:08:48;2.90;99.90
612;DHT22;293;53.888;11.464;2023-02-28T00:11:15;2.90;99.90
612;DHT22;293;53.888;11.464;2023-02-28T00:13:45;2.90;99.90
612;DHT22;293;53.888;11.464;2023-02-28T00:16:13;2.80;99.90
612;DHT22;293;53.888;11.464;2023-02-28T00:18:41;2.80;99.90
612;DHT22;293;53.888;11.464;2023-02-28T00:21:08;2.70;99.90
612;DHT22;293;53.888;11.464;2023-02-28T00:23:37;2.60;99.90
612;DHT22;293;53.888;11.464;2023-02-28T00:26:04;2.50;99.90
612;DHT22;293;53.888;11.464;2023-02-28T00:28:31;2.40;99.90
612;DHT22;293;53.888;11.464;2023-02-28T00:30:58;2.30;99.90
612;DHT22;293;53.888;11.464;2023-02-28T00:33:26;2.30;99.90
612;DHT22;293;53.888;11.464;2023-02-28T00:36:01;2.20;99.90
612;DHT22;293;53.888;11.464;2023-02-28T00:38:28;2.10;99.90
612;DHT22;293;53.888;11.464;2023-02-28T00:40:57;2.10;99.90
612;DHT22;293;53.888;11.464;2023-02-28T00:43:30;2.00;99.90
612;DHT22;293;53.888;11.464;2023-02-28T00:45:57;1.90;99.90
612;DHT22;293;53.888;11.464;2023-02-28T00:48:24;1.80;99.90
612;DHT22;293;53.888;11.464;2023-02-28T00:50:50;1.80;99.90
612;DHT22;293;53.888;11.464;2023-02-28T00:53:17;1.70;99.90
612;DHT22;293;53.888;11.464;2023-02-28T00:55:44;1.70;99.90
612;DHT22;293;53.888;11.464;2023-02-28T00:58:12;1.60;99.90
612;DHT22;293;53.888;11.464;2023-02-28T01:00:39;1.50;99.90
612;DHT22;293;53.888;11.464;2023-02-28T01:03:06;1.50;99.90
612;DHT22;293;53.888;11.464;2023-02-28T01:05:33;1.40;99.90
612;DHT22;293;53.888;11.464;2023-02-28T01:08:00;1.40;99.90
612;DHT22;293;53.888;11.464;2023-02-28T01:10:27;1.30;99.90
612;DHT22;293;53.888;11.464;2023-02-28T01:12:56;1.30;99.90
612;DHT22;293;53.888;11.464;2023-02-28T01:15:25;1.30;99.90
612;DHT22;293;53.888;11.464;2023-02-28T01:17:52;1.30;99.90
612;DHT22;293;53.888;11.464;2023-02-28T01:20:19;1.20;99.90
612;DHT22;293;53.888;11.464;2023-02-28T01:22:45;1.20;99.90
612;DHT22;293;53.888;11.464;2023-02-28T01:25:13;1.20;99.90
612;DHT22;293;53.888;11.464;2023-02-28T01:27:40;1.20;99.90
612;DHT22;293;53.888;11.464;2023-02-28T01:30:08;1.10;99.90
612;DHT22;293;53.888;11.464;2023-02-28T01:32:36;1.10;99.90
612;DHT22;293;53.888;11.464;2023-02-28T01:35:04;1.10;99.90
612;DHT22;293;53.888;11.464;2023-02-28T01:37:31;1.00;99.90
612;DHT22;293;53.888;11.464;2023-02-28T01:39:57;1.00;99.90
612;DHT22;293;53.888;11.464;2023-02-28T01:42:24;1.00;99.90
612;DHT22;293;53.888;11.464;2023-02-28T01:45:06;0.90;99.90
612;DHT22;293;53.888;11.464;2023-02-28T01:47:43;0.90;99.90
612;DHT22;293;53.888;11.464;2023-02-28T01:50:15;0.90;99.90
612;DHT22;293;53.888;11.464;2023-02-28T01:52:43;0.90;99.90
612;DHT22;293;53.888;11.464;2023-02-28T01:55:11;0.80;99.90
612;DHT22;293;53.888;11.464;2023-02-28T01:57:41;0.80;99.90
612;DHT22;293;53.888;11.464;2023-02-28T02:00:12;0.80;99.90
612;DHT22;293;53.888;11.464;2023-02-28T02:02:43;0.80;99.90
612;DHT22;293;53.888;11.464;2023-02-28T02:05:14;0.70;99.90
612;DHT22;293;53.888;11.464;2023-02-28T02:07:43;0.70;99.90
612;DHT22;293;53.888;11.464;2023-02-28T02:10:14;0.70;99.90
612;DHT22;293;53.888;11.464;2023-02-28T02:12:56;0.70;99.90
612;DHT22;293;53.888;11.464;2023-02-28T02:15:29;0.60;99.90
612;DHT22;293;53.888;11.464;2023-02-28T02:18:03;0.60;99.90
612;DHT22;293;53.888;11.464;2023-02-28T02:20:51;0.60;99.90
612;DHT22;293;53.888;11.464;2023-02-28T02:23:46;0.50;99.90
612;DHT22;293;53.888;11.464;2023-02-28T02:26:48;0.50;99.90
612;DHT22;293;53.888;11.464;2023-02-28T02:29:39;0.40;99.90
612;DHT22;293;53.888;11.464;2023-02-28T02:32:25;0.40;99.90
612;DHT22;293;53.888;11.464;2023-02-28T02:35:04;0.40;99.90
612;DHT22;293;53.888;11.464;2023-02-28T02:37:38;0.40;99.90
612;DHT22;293;53.888;11.464;2023-02-28T02:40:12;0.40;99.90
612;DHT22;293;53.888;11.464;2023-02-28T02:42:47;0.30;99.90
612;DHT22;293;53.888;11.464;2023-02-28T02:45:20;0.30;99.90
612;DHT22;293;53.888;11.464;2023-02-28T02:47:48;0.30;99.90
612;DHT22;293;53.888;11.464;2023-02-28T02:50:21;0.30;99.90
612;DHT22;293;53.888;11.464;2023-02-28T02:52:52;0.30;99.90
612;DHT22;293;53.888;11.464;2023-02-28T02:55:20;0.30;99.90
612;DHT22;293;53.888;11.464;2023-02-28T02:57:50;0.30;99.90
612;DHT22;293;53.888;11.464;2023-02-28T03:00:23;0.20;99.90
612;DHT22;293;53.888;11.464;2023-02-28T03:02:52;0.20;99.90
612;DHT22;293;53.888;11.464;2023-02-28T03:05:25;0.20;99.90
612;DHT22;293;53.888;11.464;2023-02-28T03:07:52;0.20;99.90
612;DHT22;293;53.888;11.464;2023-02-28T03:10:32;0.20;99.90
612;DHT22;293;53.888;11.464;2023-02-28T03:13:19;0.20;99.90
612;DHT22;293;53.888;11.464;2023-02-28T03:15:58;0.20;99.90
612;DHT22;293;53.888;11.464;2023-02-28T03:18:33;0.20;99.90
612;DHT22;293;53.888;11.464;2023-02-28T03:21:11;0.10;99.90
612;DHT22;293;53.888;11.464;2023-02-28T03:23:45;0.10;99.90
612;DHT22;293;53.888;11.464;2023-02-28T03:26:20;0.10;99.90
612;DHT22;293;53.888;11.464;2023-02-28T03:28:54;0.10;99.90
612;DHT22;293;53.888;11.464;2023-02-28T03:31:27;0.10;99.90
612;DHT22;293;53.888;11.464;2023-02-28T03:33:59;0.10;99.90
612;DHT22;293;53.888;11.464;2023-02-28T03:36:31;0.10;99.90
612;DHT22;293;53.888;11.464;2023-02-28T03:39:02;0.10;99.90
612;DHT22;293;53.888;11.464;2023-02-28T03:41:35;0.10;99.90
612;DHT22;293;53.888;11.464;2023-02-28T03:44:09;0.10;99.90
612;DHT22;293;53.888;11.464;2023-02-28T03:46:44;0.00;99.90
612;DHT22;293;53.888;11.464;2023-02-28T03:49:15;0.10;99.90
612;DHT22;293;53.888;11.464;2023-02-28T03:51:46;0.00;99.90
612;DHT22;293;53.888;11.464;2023-02-28T03:54:19;0.00;99.90
612;DHT22;293;53.888;11.464;2023-02-28T03:56:51;0.00;99.90
612;DHT22;293;53.888;11.464;2023-02-28T03:59:23;0.00;99.90
612;DHT22;293;53.888;11.464;2023-02-28T04:01:52;0.00;99.90
612;DHT22;293;53.888;11.464;2023-02-28T04:04:20;0.00;99.90
612;DHT22;293;53.888;11.464;2023-02-28T04:09:28;0.00;99.90
612;DHT22;293;53.888;11.464;2023-02-28T04:11:55;0.00;99.90
612;DHT22;293;53.888;11.464;2023-02-28T04:14:22;0.00;99.90
612;DHT22;293;53.888;11.464;2023-02-28T04:16:49;0.00;99.90
612;DHT22;293;53.888;11.464;2023-02-28T04:19:17;0.00;99.90
612;DHT22;293;53.888;11.464;2023-02-28T04:21:46;-0.10;99.90
612;DHT22;293;53.888;11.464;2023-02-28T04:24:14;-0.10;99.90
612;DHT22;293;53.888;11.464;2023-02-28T04:26:44;-0.20;99.90
612;DHT22;293;53.888;11.464;2023-02-28T04:29:12;-0.20;99.90
612;DHT22;293;53.888;11.464;2023-02-28T04:31:40;-0.20;99.90
612;DHT22;293;53.888;11.464;2023-02-28T04:34:07;-0.10;99.90
612;DHT22;293;53.888;11.464;2023-02-28T04:36:33;-0.10;99.90
612;DHT22;293;53.888;11.464;2023-02-28T04:39:00;-0.10;99.90
612;DHT22;293;53.888;11.464;2023-02-28T04:41:27;-0.10;99.90
612;DHT22;293;53.888;11.464;2023-02-28T04:43:56;-0.10;99.90
612;DHT22;293;53.888;11.464;2023-02-28T04:46:23;-0.10;99.90
612;DHT22;293;53.888;11.464;2023-02-28T04:48:50;-0.20;99.90
612;DHT22;293;53.888;11.464;2023-02-28T04:51:18;-0.20;99.90
612;DHT22;293;53.888;11.464;2023-02-28T04:53:46;-0.20;99.90
612;DHT22;293;53.888;11.464;2023-02-28T04:56:14;-0.30;99.90
612;DHT22;293;53.888;11.464;2023-02-28T04:58:41;-0.30;99.90
612;DHT22;293;53.888;11.464;2023-02-28T05:01:19;-0.30;99.90
612;DHT22;293;53.888;11.464;2023-02-28T05:03:46;-0.30;99.90
612;DHT22;293;53.888;11.464;2023-02-28T05:06:13;-0.30;99.90
612;DHT22;293;53.888;11.464;2023-02-28T05:08:41;-0.40;99.90
612;DHT22;293;53.888;11.464;2023-02-28T05:11:21;-0.40;99.90
612;DHT22;293;53.888;11.464;2023-02-28T05:13:49;-0.40;99.90
612;DHT22;293;53.888;11.464;2023-02-28T05:16:17;-0.40;99.90
612;DHT22;293;53.888;11.464;2023-02-28T05:18:45;-0.40;99.90
612;DHT22;293;53.888;11.464;2023-02-28T05:21:24;-0.40;99.90
612;DHT22;293;53.888;11.464;2023-02-28T05:23:52;-0.50;99.90
612;DHT22;293;53.888;11.464;2023-02-28T05:26:19;-0.50;99.90
612;DHT22;293;53.888;11.464;2023-02-28T05:28:46;-0.50;99.90
612;DHT22;293;53.888;11.464;2023-02-28T05:31:13;-0.50;99.90
612;DHT22;293;53.888;11.464;2023-02-28T05:33:42;-0.50;99.90
612;DHT22;293;53.888;11.464;2023-02-28T05:36:09;-0.50;99.90
612;DHT22;293;53.888;11.464;2023-02-28T05:38:35;-0.50;99.90
612;DHT22;293;53.888;11.464;2023-02-28T05:41:05;-0.60;99.90
612;DHT22;293;53.888;11.464;2023-02-28T05:43:33;-0.60;99.90
612;DHT22;293;53.888;11.464;2023-02-28T05:46:02;-0.60;99.90
612;DHT22;293;53.888;11.464;2023-02-28T05:48:30;-0.60;99.90
612;DHT22;293;53.888;11.464;2023-02-28T05:50:58;-0.70;99.90
612;DHT22;293;53.888;11.464;2023-02-28T05:53:25;-0.70;99.90
612;DHT22;293;53.888;11.464;2023-02-28T05:55:53;-0.70;99.90
612;DHT22;293;53.888;11.464;2023-02-28T05:58:19;-0.70;99.90
612;DHT22;293;53.888;11.464;2023-02-28T06:00:46;-0.70;99.90
612;DHT22;293;53.888;11.464;2023-02-28T06:03:13;-0.70;99.90
612;DHT22;293;53.888;11.464;2023-02-28T06:05:40;-0.70;99.90
612;DHT22;293;53.888;11.464;2023-02-28T06:08:09;-0.70;99.90
612;DHT22;293;53.888;11.464;2023-02-28T06:10:35;-0.60;99.90
612;DHT22;293;53.888;11.464;2023-02-28T06:13:03;-0.70;99.90
612;DHT22;293;53.888;11.464;2023-02-28T06:15:30;-0.70;99.90
612;DHT22;293;53.888;11.464;2023-02-28T06:17:58;-0.70;99.90
612;DHT22;293;53.888;11.464;2023-02-28T06:20:26;-0.60;99.90
612;DHT22;293;53.888;11.464;2023-02-28T06:22:55;-0.60;99.90
612;DHT22;293;53.888;11.464;2023-02-28T06:25:25;-0.50;99.90
612;DHT22;293;53.888;11.464;2023-02-28T06:27:53;-0.50;99.90
612;DHT22;293;53.888;11.464;2023-02-28T06:30:20;-0.50;99.90
612;DHT22;293;53.888;11.464;2023-02-28T06:32:53;-0.40;99.90
612;DHT22;293;53.888;11.464;2023-02-28T06:35:20;-0.40;99.90
612;DHT22;293;53.888;11.464;2023-02-28T06:37:47;-0.40;99.90
612;DHT22;293;53.888;11.464;2023-02-28T06:40:14;-0.30;99.90
612;DHT22;293;53.888;11.464;2023-02-28T06:42:42;-0.30;99.90
612;DHT22;293;53.888;11.464;2023-02-28T06:45:10;-0.30;99.90
612;DHT22;293;53.888;11.464;2023-02-28T06:47:38;-0.20;99.90
612;DHT22;293;53.888;11.464;2023-02-28T06:50:07;-0.20;99.90
612;DHT22;293;53.888;11.464;2023-02-28T06:52:34;-0.10;99.90
612;DHT22;293;53.888;11.464;2023-02-28T06:55:03;-0.10;99.90
612;DHT22;293;53.888;11.464;2023-02-28T06:57:32;0.00;99.90
612;DHT22;293;53.888;11.464;2023-02-28T07:00:03;0.00;99.90
612;DHT22;293;53.888;11.464;2023-02-28T07:02:30;0.00;99.90
612;DHT22;293;53.888;11.464;2023-02-28T07:04:57;0.10;99.90
612;DHT22;293;53.888;11.464;2023-02-28T07:07:24;0.10;99.90
612;DHT22;293;53.888;11.464;2023-02-28T07:09:51;0.10;99.90
612;DHT22;293;53.888;11.464;2023-02-28T07:12:18;0.20;99.90
612;DHT22;293;53.888;11.464;2023-02-28T07:14:45;0.30;99.90
612;DHT22;293;53.888;11.464;2023-02-28T07:17:13;0.30;99.90
612;DHT22;293;53.888;11.464;2023-02-28T07:19:40;0.30;99.90
612;DHT22;293;53.888;11.464;2023-02-28T07:22:07;0.40;99.90
612;DHT22;293;53.888;11.464;2023-02-28T07:24:34;0.50;99.90
612;DHT22;293;53.888;11.464;2023-02-28T07:27:01;0.50;99.90
612;DHT22;293;53.888;11.464;2023-02-28T07:29:28;0.60;99.90
612;DHT22;293;53.888;11.464;2023-02-28T07:31:55;0.60;99.90
612;DHT22;293;53.888;11.464;2023-02-28T07:34:23;0.60;99.90
612;DHT22;293;53.888;11.464;2023-02-28T07:36:53;0.70;99.90
612;DHT22;293;53.888;11.464;2023-02-28T07:39:20;0.70;99.90
612;DHT22;293;53.888;11.464;2023-02-28T07:41:47;0.70;99.90
612;DHT22;293;53.888;11.464;2023-02-28T07:44:14;0.80;99.90
612;DHT22;293;53.888;11.464;2023-02-28T07:46:41;0.80;99.90
612;DHT22;293;53.888;11.464;2023-02-28T07:49:08;0.90;99.90
612;DHT22;293;53.888;11.464;2023-02-28T07:51:36;0.90;99.90
612;DHT22;293;53.888;11.464;2023-02-28T07:54:03;1.00;99.90
612;DHT22;293;53.888;11.464;2023-02-28T07:56:30;1.10;99.90
612;DHT22;293;53.888;11.464;2023-02-28T07:58:57;1.10;99.90
612;DHT22;293;53.888;11.464;2023-02-28T08:01:24;1.20;99.90
612;DHT22;293;53.888;11.464;2023-02-28T08:03:51;1.30;99.90
612;DHT22;293;53.888;11.464;2023-02-28T08:06:21;1.30;99.90
612;DHT22;293;53.888;11.464;2023-02-28T08:08:50;1.40;99.90
612;DHT22;293;53.888;11.464;2023-02-28T08:11:17;1.50;99.90
612;DHT22;293;53.888;11.464;2023-02-28T08:13:45;1.60;99.90
612;DHT22;293;53.888;11.464;2023-02-28T08:16:12;1.60;99.90
612;DHT22;293;53.888;11.464;2023-02-28T08:18:42;1.70;99.90
612;DHT22;293;53.888;11.464;2023-02-28T08:21:10;1.70;99.90
612;DHT22;293;53.888;11.464;2023-02-28T08:23:37;1.80;99.90
612;DHT22;293;53.888;11.464;2023-02-28T08:26:05;1.90;99.90
612;DHT22;293;53.888;11.464;2023-02-28T08:28:33;1.90;99.90
612;DHT22;293;53.888;11.464;2023-02-28T08:31:00;2.00;99.90
612;DHT22;293;53.888;11.464;2023-02-28T08:33:27;2.10;99.90
612;DHT22;293;53.888;11.464;2023-02-28T08:35:54;2.10;99.90
612;DHT22;293;53.888;11.464;2023-02-28T08:38:22;2.20;99.90
612;DHT22;293;53.888;11.464;2023-02-28T08:40:49;2.20;99.90
612;DHT22;293;53.888;11.464;2023-02-28T08:43:18;2.30;99.90
612;DHT22;293;53.888;11.464;2023-02-28T08:45:45;2.40;99.90
612;DHT22;293;53.888;11.464;2023-02-28T08:48:11;2.40;99.90
612;DHT22;293;53.888;11.464;2023-02-28T08:50:39;2.60;99.90
612;DHT22;293;53.888;11.464;2023-02-28T08:53:05;2.60;99.90
612;DHT22;293;53.888;11.464;2023-02-28T08:55:32;2.70;99.90
612;DHT22;293;53.888;11.464;2023-02-28T08:57:59;2.70;99.90
612;DHT22;293;53.888;11.464;2023-02-28T09:00:28;2.80;99.90
612;DHT22;293;53.888;11.464;2023-02-28T09:02:55;2.80;99.90
612;DHT22;293;53.888;11.464;2023-02-28T09:05:22;2.80;99.90
612;DHT22;293;53.888;11.464;2023-02-28T09:07:49;2.90;99.90
612;DHT22;293;53.888;11.464;2023-02-28T09:10:16;2.90;99.90
612;DHT22;293;53.888;11.464;2023-02-28T09:12:43;3.00;99.90
612;DHT22;293;53.888;11.464;2023-02-28T09:15:12;3.00;99.90
612;DHT22;293;53.888;11.464;2023-02-28T09:17:40;3.10;99.90
612;DHT22;293;53.888;11.464;2023-02-28T09:20:09;3.20;99.90
612;DHT22;293;53.888;11.464;2023-02-28T09:22:36;3.20;99.90
612;DHT22;293;53.888;11.464;2023-02-28T09:25:03;3.40;99.90
612;DHT22;293;53.888;11.464;2023-02-28T09:27:30;3.60;99.90
612;DHT22;293;53.888;11.464;2023-02-28T09:29:57;3.70;99.90
612;DHT22;293;53.888;11.464;2023-02-28T09:32:23;3.70;99.90
612;DHT22;293;53.888;11.464;2023-02-28T09:34:52;3.70;99.90
612;DHT22;293;53.888;11.464;2023-02-28T09:37:19;3.70;99.90
612;DHT22;293;53.888;11.464;2023-02-28T09:39:45;3.80;99.90
612;DHT22;293;53.888;11.464;2023-02-28T09:42:21;3.90;99.90
612;DHT22;293;53.888;11.464;2023-02-28T09:44:49;4.00;99.90
612;DHT22;293;53.888;11.464;2023-02-28T09:47:25;4.10;99.90
612;DHT22;293;53.888;11.464;2023-02-28T09:49:57;4.10;99.90
612;DHT22;293;53.888;11.464;2023-02-28T09:52:29;4.20;99.90
612;DHT22;293;53.888;11.464;2023-02-28T09:54:58;4.30;99.90
612;DHT22;293;53.888;11.464;2023-02-28T09:57:31;4.40;99.90
612;DHT22;293;53.888;11.464;2023-02-28T10:00:05;4.30;99.90
612;DHT22;293;53.888;11.464;2023-02-28T10:02:49;4.40;99.90
612;DHT22;293;53.888;11.464;2023-02-28T10:05:23;4.50;99.90
612;DHT22;293;53.888;11.464;2023-02-28T10:08:00;4.50;99.90
612;DHT22;293;53.888;11.464;2023-02-28T10:10:34;4.60;99.90
612;DHT22;293;53.888;11.464;2023-02-28T10:13:06;4.70;99.90
612;DHT22;293;53.888;11.464;2023-02-28T10:15:39;4.80;99.90
612;DHT22;293;53.888;11.464;2023-02-28T10:18:12;4.90;99.90
612;DHT22;293;53.888;11.464;2023-02-28T10:20:43;4.90;99.90
612;DHT22;293;53.888;11.464;2023-02-28T10:23:14;5.00;99.90
612;DHT22;293;53.888;11.464;2023-02-28T10:25:47;5.00;99.90
612;DHT22;293;53.888;11.464;2023-02-28T10:28:17;5.00;99.90
612;DHT22;293;53.888;11.464;2023-02-28T10:30:47;5.10;99.90
612;DHT22;293;53.888;11.464;2023-02-28T10:33:19;5.10;99.90
612;DHT22;293;53.888;11.464;2023-02-28T10:35:49;5.20;99.90
612;DHT22;293;53.888;11.464;2023-02-28T10:38:19;5.20;99.90
612;DHT22;293;53.888;11.464;2023-02-28T10:40:47;5.20;99.90
612;DHT22;293;53.888;11.464;2023-02-28T10:43:20;5.30;99.90
612;DHT22;293;53.888;11.464;2023-02-28T10:45:59;5.30;99.90
612;DHT22;293;53.888;11.464;2023-02-28T10:48:32;5.40;99.90
612;DHT22;293;53.888;11.464;2023-02-28T10:51:01;5.40;99.90
612;DHT22;293;53.888;11.464;2023-02-28T10:53:32;5.40;99.90
612;DHT22;293;53.888;11.464;2023-02-28T10:56:01;5.40;99.90
612;DHT22;293;53.888;11.464;2023-02-28T10:58:31;5.40;99.90
612;DHT22;293;53.888;11.464;2023-02-28T11:00:59;5.40;99.90
612;DHT22;293;53.888;11.464;2023-02-28T11:03:32;5.30;99.90
612;DHT22;293;53.888;11.464;2023-02-28T11:06:05;5.40;99.90
612;DHT22;293;53.888;11.464;2023-02-28T11:08:34;5.50;99.90
612;DHT22;293;53.888;11.464;2023-02-28T11:11:04;5.50;99.90
612;DHT22;293;53.888;11.464;2023-02-28T11:13:34;5.60;99.90
612;DHT22;293;53.888;11.464;2023-02-28T11:16:04;5.70;99.90
612;DHT22;293;53.888;11.464;2023-02-28T11:18:38;5.70;99.90
612;DHT22;293;53.888;11.464;2023-02-28T11:21:08;5.70;99.90
612;DHT22;293;53.888;11.464;2023-02-28T11:23:37;5.60;99.70
612;DHT22;293;53.888;11.464;2023-02-28T11:26:07;5.70;99.00
612;DHT22;293;53.888;11.464;2023-02-28T11:28:38;5.70;98.90
612;DHT22;293;53.888;11.464;2023-02-28T11:31:16;5.80;99.30
612;DHT22;293;53.888;11.464;2023-02-28T11:33:46;5.80;99.00
612;DHT22;293;53.888;11.464;2023-02-28T11:36:19;5.80;98.80
612;DHT22;293;53.888;11.464;2023-02-28T11:38:47;5.80;98.70
612;DHT22;293;53.888;11.464;2023-02-28T11:41:40;5.80;98.60
612;DHT22;293;53.888;11.464;2023-02-28T11:44:23;5.90;97.90
612;DHT22;293;53.888;11.464;2023-02-28T11:46:56;5.80;97.90
612;DHT22;293;53.888;11.464;2023-02-28T11:49:35;5.80;98.00
612;DHT22;293;53.888;11.464;2023-02-28T11:52:34;5.90;97.50
612;DHT22;293;53.888;11.464;2023-02-28T11:55:17;5.90;97.60
612;DHT22;293;53.888;11.464;2023-02-28T11:58:03;5.90;97.60
612;DHT22;293;53.888;11.464;2023-02-28T12:00:58;6.00;98.00
612;DHT22;293;53.888;11.464;2023-02-28T12:03:30;6.10;98.20
612;DHT22;293;53.888;11.464;2023-02-28T12:06:05;6.20;98.10
612;DHT22;293;53.888;11.464;2023-02-28T12:08:49;6.20;98.10
612;DHT22;293;53.888;11.464;2023-02-28T12:11:29;6.10;98.00
612;DHT22;293;53.888;11.464;2023-02-28T12:14:14;6.20;98.30
612;DHT22;293;53.888;11.464;2023-02-28T12:16:55;6.20;98.60
612;DHT22;293;53.888;11.464;2023-02-28T12:19:26;6.10;98.10
612;DHT22;293;53.888;11.464;2023-02-28T12:24:55;6.20;98.00
612;DHT22;293;53.888;11.464;2023-02-28T12:27:29;6.20;98.30
612;DHT22;293;53.888;11.464;2023-02-28T12:30:00;6.20;98.00
612;DHT22;293;53.888;11.464;2023-02-28T12:32:32;6.20;98.00
612;DHT22;293;53.888;11.464;2023-02-28T12:35:02;6.20;98.00
612;DHT22;293;53.888;11.464;2023-02-28T12:37:34;6.20;97.90
612;DHT22;293;53.888;11.464;2023-02-28T12:40:12;6.20;97.80
612;DHT22;293;53.888;11.464;2023-02-28T12:42:41;6.20;97.40
612;DHT22;293;53.888;11.464;2023-02-28T12:45:12;6.30;97.20
612;DHT22;293;53.888;11.464;2023-02-28T12:47:42;6.30;97.10
612;DHT22;293;53.888;11.464;2023-02-28T12:50:12;6.20;97.10
612;DHT22;293;53.888;11.464;2023-02-28T12:52:44;6.20;97.10
612;DHT22;293;53.888;11.464;2023-02-28T12:55:19;6.20;97.20
612;DHT22;293;53.888;11.464;2023-02-28T12:57:54;6.10;97.20
612;DHT22;293;53.888;11.464;2023-02-28T13:00:31;6.10;97.20
612;DHT22;293;53.888;11.464;2023-02-28T13:06:52;6.10;97.00
612;DHT22;293;53.888;11.464;2023-02-28T13:09:24;6.30;96.90
612;DHT22;293;53.888;11.464;2023-02-28T13:11:53;6.20;96.70
612;DHT22;293;53.888;11.464;2023-02-28T13:14:26;6.30;96.60
612;DHT22;293;53.888;11.464;2023-02-28T13:17:02;6.30;96.40
612;DHT22;293;53.888;11.464;2023-02-28T13:19:37;6.30;96.10
612;DHT22;293;53.888;11.464;2023-02-28T13:22:16;6.30;96.00
612;DHT22;293;53.888;11.464;2023-02-28T13:24:48;6.30;95.70
612;DHT22;293;53.888;11.464;2023-02-28T13:27:36;6.40;95.20
612;DHT22;293;53.888;11.464;2023-02-28T13:33:22;6.40;95.20
612;DHT22;293;53.888;11.464;2023-02-28T13:36:08;6.30;95.80
612;DHT22;293;53.888;11.464;2023-02-28T13:38:41;6.30;95.40
612;DHT22;293;53.888;11.464;2023-02-28T13:41:42;6.30;95.40
612;DHT22;293;53.888;11.464;2023-02-28T13:44:12;6.30;95.10
612;DHT22;293;53.888;11.464;2023-02-28T13:49:43;6.40;93.30
612;DHT22;293;53.888;11.464;2023-02-28T13:52:16;6.40;91.60
612;DHT22;293;53.888;11.464;2023-02-28T13:55:12;6.30;89.40
612;DHT22;293;53.888;11.464;2023-02-28T13:57:52;6.30;89.50
612;DHT22;293;53.888;11.464;2023-02-28T14:00:33;6.40;89.00
612;DHT22;293;53.888;11.464;2023-02-28T14:03:21;6.40;87.80
612;DHT22;293;53.888;11.464;2023-02-28T14:06:15;6.50;87.30
612;DHT22;293;53.888;11.464;2023-02-28T14:08:54;6.40;87.20
612;DHT22;293;53.888;11.464;2023-02-28T14:11:30;6.40;87.80
612;DHT22;293;53.888;11.464;2023-02-28T14:13:59;6.50;89.00
612;DHT22;293;53.888;11.464;2023-02-28T14:16:35;6.50;89.10
612;DHT22;293;53.888;11.464;2023-02-28T14:19:11;6.60;89.00
612;DHT22;293;53.888;11.464;2023-02-28T14:21:43;6.60;90.10
612;DHT22;293;53.888;11.464;2023-02-28T14:24:42;6.60;90.40
612;DHT22;293;53.888;11.464;2023-02-28T14:27:37;6.60;90.20
612;DHT22;293;53.888;11.464;2023-02-28T14:30:40;6.50;88.40
612;DHT22;293;53.888;11.464;2023-02-28T14:33:25;6.50;88.00
612;DHT22;293;53.888;11.464;2023-02-28T14:36:12;6.60;87.10
612;DHT22;293;53.888;11.464;2023-02-28T14:38:44;6.50;87.50
612;DHT22;293;53.888;11.464;2023-02-28T14:41:17;6.50;87.90
612;DHT22;293;53.888;11.464;2023-02-28T14:43:51;6.40;89.10
612;DHT22;293;53.888;11.464;2023-02-28T14:46:18;6.40;87.80
612;DHT22;293;53.888;11.464;2023-02-28T14:48:48;6.40;87.80
612;DHT22;293;53.888;11.464;2023-02-28T14:51:19;6.40;87.80
612;DHT22;293;53.888;11.464;2023-02-28T14:53:50;6.40;87.30
612;DHT22;293;53.888;11.464;2023-02-28T14:56:35;6.40;86.60
612;DHT22;293;53.888;11.464;2023-02-28T14:59:03;6.30;86.40
612;DHT22;293;53.888;11.464;2023-02-28T15:01:30;6.40;84.90
612;DHT22;293;53.888;11.464;2023-02-28T15:04:02;6.40;84.20
612;DHT22;293;53.888;11.464;2023-02-28T15:06:30;6.50;84.40
612;DHT22;293;53.888;11.464;2023-02-28T15:09:14;6.40;84.60
612;DHT22;293;53.888;11.464;2023-02-28T15:11:45;6.30;84.30
612;DHT22;293;53.888;11.464;2023-02-28T15:14:17;6.20;83.90
612;DHT22;293;53.888;11.464;2023-02-28T15:16:47;6.20;83.70
612;DHT22;293;53.888;11.464;2023-02-28T15:19:19;6.20;83.00
612;DHT22;293;53.888;11.464;2023-02-28T15:21:49;6.20;82.00
612;DHT22;293;53.888;11.464;2023-02-28T15:24:18;6.20;82.60
612;DHT22;293;53.888;11.464;2023-02-28T15:26:53;6.20;81.70
612;DHT22;293;53.888;11.464;2023-02-28T15:29:23;6.20;82.10
612;DHT22;293;53.888;11.464;2023-02-28T15:31:56;6.30;82.60
612;DHT22;293;53.888;11.464;2023-02-28T15:34:33;6.20;82.60
612;DHT22;293;53.888;11.464;2023-02-28T15:37:00;6.20;82.20
612;DHT22;293;53.888;11.464;2023-02-28T15:39:28;6.10;84.00
612;DHT22;293;53.888;11.464;2023-02-28T15:42:10;6.10;86.10
612;DHT22;293;53.888;11.464;2023-02-28T15:44:38;6.00;87.20
612;DHT22;293;53.888;11.464;2023-02-28T15:47:06;6.00;89.00
612;DHT22;293;53.888;11.464;2023-02-28T15:49:45;6.00;90.50
612;DHT22;293;53.888;11.464;2023-02-28T15:52:17;6.00;90.60
612;DHT22;293;53.888;11.464;2023-02-28T15:54:45;6.00;90.70
612;DHT22;293;53.888;11.464;2023-02-28T15:57:17;6.00;91.00
612;DHT22;293;53.888;11.464;2023-02-28T15:59:50;6.00;91.50
612;DHT22;293;53.888;11.464;2023-02-28T16:02:20;5.90;91.40
612;DHT22;293;53.888;11.464;2023-02-28T16:05:25;5.90;91.40
612;DHT22;293;53.888;11.464;2023-02-28T16:07:59;5.90;91.00
612;DHT22;293;53.888;11.464;2023-02-28T16:10:28;5.80;90.40
612;DHT22;293;53.888;11.464;2023-02-28T16:12:56;5.80;90.00
612;DHT22;293;53.888;11.464;2023-02-28T16:15:25;5.70;89.70
612;DHT22;293;53.888;11.464;2023-02-28T16:17:53;5.70;90.20
612;DHT22;293;53.888;11.464;2023-02-28T16:20:22;5.70;90.60
612;DHT22;293;53.888;11.464;2023-02-28T16:22:51;5.70;91.00
612;DHT22;293;53.888;11.464;2023-02-28T16:25:20;5.60;91.40
612;DHT22;293;53.888;11.464;2023-02-28T16:27:48;5.60;91.70
612;DHT22;293;53.888;11.464;2023-02-28T16:30:20;5.60;91.90
612;DHT22;293;53.888;11.464;2023-02-28T16:32:47;5.60;92.20
612;DHT22;293;53.888;11.464;2023-02-28T16:35:15;5.60;92.10
612;DHT22;293;53.888;11.464;2023-02-28T16:37:43;5.50;92.20
612;DHT22;293;53.888;11.464;2023-02-28T16:40:15;5.50;92.50
612;DHT22;293;53.888;11.464;2023-02-28T16:42:43;5.50;93.10
612;DHT22;293;53.888;11.464;2023-02-28T16:45:21;5.40;93.50
612;DHT22;293;53.888;11.464;2023-02-28T16:47:49;5.40;93.80
612;DHT22;293;53.888;11.464;2023-02-28T16:50:19;5.40;94.00
612;DHT22;293;53.888;11.464;2023-02-28T16:52:46;5.50;94.10
612;DHT22;293;53.888;11.464;2023-02-28T16:55:15;5.50;93.80
612;DHT22;293;53.888;11.464;2023-02-28T16:57:42;5.40;93.60
612;DHT22;293;53.888;11.464;2023-02-28T17:00:13;5.30;93.90
612;DHT22;293;53.888;11.464;2023-02-28T17:02:40;5.20;93.80
612;DHT22;293;53.888;11.464;2023-02-28T17:05:10;5.20;94.30
612;DHT22;293;53.888;11.464;2023-02-28T17:07:37;5.30;94.50
612;DHT22;293;53.888;11.464;2023-02-28T17:10:12;5.00;94.40
612;DHT22;293;53.888;11.464;2023-02-28T17:12:42;5.00;94.80
612;DHT22;293;53.888;11.464;2023-02-28T17:15:14;4.90;95.20